Time;durP1;ratioP1;P1;durP2;ratioP2;P2;SDS_P1;SDS_P2;PMS_P1;PMS_P2;Temp;Humidity;BMP_temperature;BMP_pressure;BME280_temperature;BME280_humidity;BME280_pressure;Samples;Min_cycle;Max_cycle;Signal;HPM_P1;HPM_P2
2022/09/20 00:01:27;;;;;;;11.90;1.63;;;12.20;99.90;;;;;;5062550;28;20444;-64
2022/09/20 00:03:55;;;;;;;7.47;1.88;;;12.20;99.90;;;;;;5015252;28;20120;-64
2022/09/20 00:06:23;;;;;;;6.65;1.50;;;12.20;99.90;;;;;;5066610;28;20482;-64
2022/09/20 00:08:49;;;;;;;7.90;1.75;;;12.20;99.90;;;;;;5063646;28;20060;-64
2022/09/20 00:11:18;;;;;;;9.65;1.80;;;12.10;99.90;;;;;;5061559;28;21731;-63
2022/09/20 00:13:45;;;;;;;10.18;1.80;;;12.10;99.90;;;;;;5065024;28;20029;-64
2022/09/20 00:16:17;;;;;;;10.93;3.65;;;12.00;99.90;;;;;;5061178;28;20025;-62
2022/09/20 00:18:46;;;;;;;10.57;1.85;;;12.00;99.90;;;;;;5061096;28;20021;-64
2022/09/20 00:21:21;;;;;;;10.02;2.05;;;11.90;99.90;;;;;;5059428;28;20032;-65
2022/09/20 00:23:46;;;;;;;16.58;1.90;;;11.90;99.90;;;;;;5059930;28;21448;-64
2022/09/20 00:26:12;;;;;;;8.95;1.90;;;11.80;99.90;;;;;;5065963;28;20078;-65
2022/09/20 00:28:39;;;;;;;12.30;2.00;;;11.80;99.90;;;;;;5061386;28;20093;-64
2022/09/20 00:31:05;;;;;;;9.35;2.15;;;11.80;99.90;;;;;;5059542;28;20024;-63
2022/09/20 00:36:15;;;;;;;9.43;2.50;;;11.70;99.90;;;;;;5065242;28;20105;-65
2022/09/20 00:38:41;;;;;;;14.25;2.25;;;11.80;99.90;;;;;;5058119;28;20058;-62
2022/09/20 00:41:07;;;;;;;10.98;1.98;;;11.80;99.90;;;;;;5052256;28;20530;-64
2022/09/20 00:43:44;;;;;;;11.73;2.25;;;11.80;99.90;;;;;;5061375;28;20040;-64
2022/09/20 00:46:22;;;;;;;12.38;2.40;;;11.90;99.90;;;;;;5039075;28;20033;-64
2022/09/20 00:48:49;;;;;;;8.85;2.17;;;11.90;99.90;;;;;;5054751;28;20025;-64
2022/09/20 00:51:21;;;;;;;15.60;2.85;;;11.90;99.90;;;;;;5062944;28;20033;-64
2022/09/20 00:53:49;;;;;;;11.05;2.40;;;11.90;99.90;;;;;;5056879;28;20127;-64
2022/09/20 00:56:27;;;;;;;8.82;2.38;;;11.90;99.90;;;;;;5055898;28;20024;-64
2022/09/20 00:59:15;;;;;;;7.55;2.22;;;11.90;99.90;;;;;;5055687;28;20037;-64
2022/09/20 01:01:44;;;;;;;10.57;2.45;;;11.90;99.90;;;;;;5060719;28;20067;-64
2022/09/20 01:04:13;;;;;;;7.93;2.20;;;12.00;99.90;;;;;;5058976;28;20029;-64
2022/09/20 01:06:39;;;;;;;7.03;2.05;;;12.00;99.90;;;;;;5062437;28;20028;-64
2022/09/20 01:09:06;;;;;;;10.52;3.17;;;12.00;99.90;;;;;;5061211;28;20032;-62
2022/09/20 01:11:33;;;;;;;13.60;2.90;;;12.00;99.90;;;;;;5054204;28;20032;-64
2022/09/20 01:13:59;;;;;;;12.07;2.78;;;12.00;99.90;;;;;;5059716;28;20421;-64
2022/09/20 01:16:29;;;;;;;13.60;3.00;;;12.00;99.90;;;;;;5054533;28;20576;-64
2022/09/20 01:18:57;;;;;;;7.88;2.08;;;12.00;99.90;;;;;;5057296;28;20023;-64
2022/09/20 01:21:24;;;;;;;8.63;2.28;;;12.00;99.90;;;;;;5057903;28;20041;-64
2022/09/20 01:24:13;;;;;;;10.90;3.00;;;12.00;99.90;;;;;;5060618;28;20123;-64
2022/09/20 01:26:51;;;;;;;12.05;2.78;;;12.00;99.90;;;;;;5059916;28;20073;-64
2022/09/20 01:29:44;;;;;;;13.00;2.50;;;12.00;99.90;;;;;;5060853;28;20032;-64
2022/09/20 01:32:15;;;;;;;9.40;2.10;;;12.10;99.90;;;;;;5037785;28;20056;-64
2022/09/20 01:34:46;;;;;;;7.45;2.80;;;12.10;99.90;;;;;;5060202;28;20032;-64
2022/09/20 01:37:15;;;;;;;11.13;3.15;;;12.00;99.90;;;;;;5055315;28;20021;-64
2022/09/20 01:39:52;;;;;;;7.70;3.10;;;12.00;99.90;;;;;;5057371;28;20077;-64
2022/09/20 01:42:24;;;;;;;13.75;3.42;;;12.00;99.90;;;;;;5054437;28;20382;-64
2022/09/20 01:45:18;;;;;;;11.80;2.92;;;12.00;99.90;;;;;;5058865;28;20033;-64
2022/09/20 01:47:59;;;;;;;9.25;2.55;;;12.00;99.90;;;;;;5056340;28;20032;-64
2022/09/20 01:50:34;;;;;;;9.10;2.88;;;12.10;99.90;;;;;;5053159;28;20458;-64
2022/09/20 01:53:02;;;;;;;18.60;3.33;;;12.10;99.90;;;;;;5063269;28;20027;-64
2022/09/20 01:56:11;;;;;;;11.63;2.88;;;12.10;99.90;;;;;;5053110;28;20096;-64
2022/09/20 01:59:11;;;;;;;15.70;3.20;;;12.10;99.90;;;;;;4983843;28;20030;-64
2022/09/20 02:02:06;;;;;;;15.07;3.60;;;12.10;99.90;;;;;;5053530;28;20523;-64
2022/09/20 02:04:39;;;;;;;11.68;2.83;;;12.10;99.90;;;;;;5019791;28;20075;-64
2022/09/20 02:07:31;;;;;;;31.05;3.20;;;12.20;99.90;;;;;;5052090;28;20112;-64
2022/09/20 02:10:24;;;;;;;9.93;3.03;;;12.10;99.90;;;;;;5059217;28;20111;-64
2022/09/20 02:12:57;;;;;;;9.88;3.17;;;12.10;99.90;;;;;;5059021;28;20372;-63
2022/09/20 02:15:51;;;;;;;19.83;3.00;;;12.10;99.90;;;;;;5052516;28;20029;-64
2022/09/20 02:18:29;;;;;;;5.50;2.33;;;12.10;99.90;;;;;;5056242;28;20510;-64
2022/09/20 02:21:19;;;;;;;7.80;2.72;;;12.10;99.90;;;;;;5052887;28;20471;-64
2022/09/20 02:23:59;;;;;;;10.38;2.70;;;12.10;99.90;;;;;;5057067;28;20032;-64
2022/09/20 02:26:44;;;;;;;14.63;3.38;;;12.10;99.90;;;;;;5057788;28;20429;-64
2022/09/20 02:29:24;;;;;;;11.23;2.33;;;12.10;99.90;;;;;;5049734;28;20029;-65
2022/09/20 02:31:59;;;;;;;9.23;3.15;;;12.10;99.90;;;;;;5055155;28;20033;-65
2022/09/20 02:34:40;;;;;;;8.10;2.70;;;12.10;99.90;;;;;;5053263;28;20026;-64
2022/09/20 02:37:27;;;;;;;6.78;2.83;;;12.10;99.90;;;;;;5055767;28;20099;-64
2022/09/20 02:40:11;;;;;;;12.05;3.35;;;12.10;99.90;;;;;;5052810;28;20048;-64
2022/09/20 02:43:00;;;;;;;16.73;2.83;;;12.10;99.90;;;;;;5055621;28;20035;-64
2022/09/20 02:45:42;;;;;;;7.55;3.08;;;12.10;99.90;;;;;;5055179;28;20082;-64
2022/09/20 02:48:08;;;;;;;9.82;3.28;;;12.10;99.90;;;;;;5061048;28;20496;-65
2022/09/20 02:51:01;;;;;;;13.15;2.92;;;12.10;99.90;;;;;;5053938;28;20037;-64
2022/09/20 02:53:44;;;;;;;13.35;3.30;;;12.10;99.90;;;;;;5059272;28;21969;-64
2022/09/20 02:56:42;;;;;;;13.57;2.58;;;12.10;99.90;;;;;;5064166;28;20029;-62
2022/09/20 02:59:27;;;;;;;12.00;2.70;;;12.10;99.90;;;;;;5061825;28;20036;-64
2022/09/20 03:02:23;;;;;;;6.47;2.70;;;12.10;99.90;;;;;;5054284;28;20025;-64
2022/09/20 03:05:11;;;;;;;14.88;3.22;;;12.00;99.90;;;;;;5057274;28;20032;-64
2022/09/20 03:08:01;;;;;;;13.52;3.05;;;11.90;99.90;;;;;;5054906;28;20036;-64
2022/09/20 03:11:01;;;;;;;12.73;3.13;;;11.90;99.90;;;;;;5054879;28;20112;-63
2022/09/20 03:13:41;;;;;;;15.50;2.95;;;11.80;99.90;;;;;;5061036;28;20025;-64
2022/09/20 03:16:15;;;;;;;12.45;2.67;;;11.80;99.90;;;;;;5055708;28;20055;-64
2022/09/20 03:19:15;;;;;;;8.88;2.70;;;11.80;99.90;;;;;;5054775;28;20040;-64
2022/09/20 03:22:12;;;;;;;10.38;2.42;;;11.90;99.90;;;;;;5051282;28;20033;-63
2022/09/20 03:25:08;;;;;;;6.75;2.47;;;11.90;99.90;;;;;;5056807;28;20040;-64
2022/09/20 03:28:02;;;;;;;8.57;2.70;;;12.00;99.90;;;;;;5052597;28;20494;-63
2022/09/20 03:30:54;;;;;;;10.38;2.55;;;12.00;99.90;;;;;;5055485;28;20028;-64
2022/09/20 03:33:50;;;;;;;14.75;4.47;;;12.00;99.90;;;;;;5057838;28;20063;-64
2022/09/20 03:36:51;;;;;;;10.18;2.60;;;11.90;99.90;;;;;;5052059;28;20066;-64
2022/09/20 03:39:35;;;;;;;10.43;2.38;;;11.90;99.90;;;;;;5044375;28;20095;-64
2022/09/20 03:42:22;;;;;;;11.45;2.80;;;11.90;99.90;;;;;;5053287;28;20021;-64
2022/09/20 03:45:22;;;;;;;13.90;2.30;;;12.00;99.90;;;;;;5058431;28;20029;-64
2022/09/20 03:48:21;;;;;;;8.60;2.40;;;12.00;99.90;;;;;;5060769;28;20408;-64
2022/09/20 03:51:16;;;;;;;16.63;2.67;;;11.90;99.90;;;;;;5057165;28;20393;-62
2022/09/20 03:54:00;;;;;;;10.77;1.98;;;11.90;99.90;;;;;;5058629;28;20025;-64
2022/09/20 03:56:52;;;;;;;9.35;2.13;;;11.90;99.90;;;;;;5066555;28;20024;-64
2022/09/20 03:59:30;;;;;;;18.02;2.30;;;11.90;99.90;;;;;;5061793;28;20025;-64
2022/09/20 04:02:22;;;;;;;9.32;2.38;;;11.80;99.90;;;;;;5058568;28;20033;-63
2022/09/20 04:04:59;;;;;;;14.55;2.63;;;11.70;99.90;;;;;;5059090;28;20025;-64
2022/09/20 04:08:08;;;;;;;11.43;2.20;;;11.70;99.90;;;;;;5054936;28;20029;-64
2022/09/20 04:11:02;;;;;;;8.85;2.30;;;11.70;99.90;;;;;;5057568;28;20360;-65
2022/09/20 04:13:35;;;;;;;7.45;2.22;;;11.70;99.90;;;;;;5013220;28;20029;-64
2022/09/20 04:16:13;;;;;;;8.15;2.13;;;11.80;99.90;;;;;;5063082;28;20029;-64
2022/09/20 04:19:03;;;;;;;9.38;2.10;;;11.70;99.90;;;;;;5055316;28;20090;-64
2022/09/20 04:21:40;;;;;;;7.00;1.73;;;11.80;99.90;;;;;;5054616;28;20082;-64
2022/09/20 04:24:21;;;;;;;12.48;1.98;;;11.80;99.90;;;;;;5053739;28;20025;-64
2022/09/20 04:26:52;;;;;;;4.60;2.00;;;11.80;99.90;;;;;;5062502;28;20785;-64
2022/09/20 04:29:26;;;;;;;5.45;1.88;;;11.80;99.90;;;;;;5055087;28;20119;-64
2022/09/20 04:32:20;;;;;;;6.07;2.13;;;11.80;99.90;;;;;;5056804;28;20494;-64
2022/09/20 04:37:46;;;;;;;8.38;2.03;;;11.80;99.90;;;;;;5060626;28;20098;-64
2022/09/20 04:40:43;;;;;;;9.85;1.73;;;11.80;99.90;;;;;;5058165;28;20072;-63
2022/09/20 04:43:42;;;;;;;6.93;1.85;;;11.80;99.90;;;;;;5055848;28;20082;-64
2022/09/20 04:46:37;;;;;;;6.78;1.85;;;11.80;99.90;;;;;;5053449;28;20037;-64
2022/09/20 04:49:35;;;;;;;4.75;1.58;;;11.80;99.90;;;;;;5062621;28;20041;-63
2022/09/20 04:52:23;;;;;;;11.48;1.80;;;11.80;99.90;;;;;;5045274;28;20051;-64
2022/09/20 04:55:20;;;;;;;7.00;1.80;;;11.80;99.90;;;;;;5061816;28;20021;-64
2022/09/20 04:58:15;;;;;;;9.52;2.35;;;11.80;99.90;;;;;;5059650;28;20119;-61
2022/09/20 05:00:46;;;;;;;7.40;1.83;;;11.90;99.90;;;;;;5051060;28;20024;-64
2022/09/20 05:03:39;;;;;;;12.75;2.03;;;11.90;99.90;;;;;;5059263;28;20094;-64
2022/09/20 05:06:30;;;;;;;9.85;2.03;;;11.90;99.90;;;;;;5059543;28;20023;-64
2022/09/20 05:09:41;;;;;;;9.35;1.90;;;11.90;99.90;;;;;;5048204;28;20045;-64
2022/09/20 05:12:33;;;;;;;5.55;1.83;;;11.90;99.90;;;;;;5058808;28;20151;-56
2022/09/20 05:15:35;;;;;;;12.23;3.17;;;11.90;99.90;;;;;;5056481;28;20023;-57
2022/09/20 05:18:32;;;;;;;8.27;1.90;;;11.90;99.90;;;;;;5062793;28;20140;-55
2022/09/20 05:21:36;;;;;;;20.60;2.22;;;11.90;99.90;;;;;;5050590;28;20081;-55
2022/09/20 05:24:28;;;;;;;12.10;2.53;;;11.90;99.90;;;;;;5062307;28;20032;-56
2022/09/20 05:27:15;;;;;;;10.43;2.33;;;11.80;99.90;;;;;;5051505;28;20029;-55
2022/09/20 05:30:00;;;;;;;17.02;3.15;;;11.80;99.90;;;;;;5058393;28;20503;-56
2022/09/20 05:32:36;;;;;;;;;;;11.90;99.90;;;;;;5065027;28;20079;-56
2022/09/20 05:35:14;;;;;;;16.67;3.00;;;11.90;99.90;;;;;;5054923;28;20037;-54
2022/09/20 05:38:05;;;;;;;11.52;3.40;;;11.90;99.90;;;;;;5060406;28;20028;-56
2022/09/20 05:41:09;;;;;;;14.20;2.90;;;11.90;99.90;;;;;;5060942;28;20040;-56
2022/09/20 05:43:51;;;;;;;10.82;2.95;;;12.00;99.90;;;;;;5044981;28;20120;-55
2022/09/20 05:46:59;;;;;;;11.63;2.85;;;12.00;99.90;;;;;;5071338;28;20060;-55
2022/09/20 05:50:07;;;;;;;11.23;3.90;;;12.00;99.90;;;;;;5025142;28;20045;-57
2022/09/20 05:52:58;;;;;;;10.85;3.50;;;12.00;99.90;;;;;;5059964;28;20036;-52
2022/09/20 05:55:45;;;;;;;10.73;4.22;;;12.00;99.90;;;;;;5050208;28;20103;-54
2022/09/20 05:58:21;;;;;;;10.63;3.88;;;12.00;99.90;;;;;;5063079;28;20033;-56
2022/09/20 06:01:03;;;;;;;14.82;4.65;;;12.10;99.90;;;;;;5050401;28;20117;-57
2022/09/20 06:03:35;;;;;;;15.85;3.88;;;12.00;99.90;;;;;;5059434;28;20021;-57
2022/09/20 06:06:27;;;;;;;14.70;4.53;;;12.10;99.90;;;;;;5060124;28;20151;-57
2022/09/20 06:09:01;;;;;;;11.27;5.18;;;12.10;99.90;;;;;;5050986;28;20563;-55
2022/09/20 06:11:45;;;;;;;15.32;4.85;;;12.10;99.90;;;;;;5058903;28;20482;-58
2022/09/20 06:14:38;;;;;;;16.20;4.53;;;12.10;99.90;;;;;;5051199;28;20048;-57
2022/09/20 06:17:09;;;;;;;14.40;4.60;;;12.10;99.90;;;;;;5058967;28;20021;-55
2022/09/20 06:19:45;;;;;;;12.82;4.45;;;12.10;99.90;;;;;;5059290;28;20048;-57
2022/09/20 06:22:26;;;;;;;16.50;5.03;;;12.20;99.90;;;;;;5056573;28;20033;-55
2022/09/20 06:25:15;;;;;;;17.00;5.40;;;12.20;99.90;;;;;;5055130;28;20115;-57
2022/09/20 06:27:50;;;;;;;16.67;4.63;;;12.30;99.90;;;;;;5053715;28;20099;-57
2022/09/20 06:30:23;;;;;;;23.75;5.38;;;12.30;99.90;;;;;;5059271;28;20036;-55
2022/09/20 06:32:59;;;;;;;12.77;5.38;;;12.30;99.90;;;;;;5051748;28;20020;-55
2022/09/20 06:35:35;;;;;;;17.05;5.30;;;12.30;99.90;;;;;;5055031;28;20020;-53
2022/09/20 06:41:27;;;;;;;24.10;6.43;;;12.30;99.90;;;;;;5057346;28;20055;-53
2022/09/20 06:43:59;;;;;;;15.48;5.55;;;12.20;99.90;;;;;;5059008;28;20504;-58
2022/09/20 06:46:30;;;;;;;9.55;5.22;;;12.20;99.90;;;;;;5060764;28;20025;-52
2022/09/20 06:48:56;;;;;;;18.38;5.47;;;12.20;99.90;;;;;;5049271;28;20017;-55
2022/09/20 06:51:24;;;;;;;19.08;6.45;;;12.20;99.90;;;;;;5049932;28;20487;-56
2022/09/20 06:53:51;;;;;;;25.92;6.63;;;12.20;99.90;;;;;;5057592;28;20025;-55
2022/09/20 06:56:23;;;;;;;19.25;6.07;;;12.20;99.90;;;;;;5058219;28;20028;-53
2022/09/20 06:58:51;;;;;;;25.20;7.43;;;12.10;99.90;;;;;;5051840;28;20017;-57
2022/09/20 07:01:17;;;;;;;24.13;6.35;;;12.10;99.90;;;;;;5049825;28;20025;-56
2022/09/20 07:03:43;;;;;;;21.58;6.47;;;12.20;99.90;;;;;;5051523;28;20118;-56
2022/09/20 07:06:09;;;;;;;16.85;6.07;;;12.20;99.90;;;;;;5055451;28;20059;-56
2022/09/20 07:08:35;;;;;;;18.30;6.28;;;12.20;99.90;;;;;;5049699;28;20035;-54
2022/09/20 07:11:11;;;;;;;22.25;7.00;;;12.30;99.90;;;;;;5051370;28;20025;-53
2022/09/20 07:13:37;;;;;;;17.25;7.43;;;12.30;99.90;;;;;;5052373;28;20033;-56
2022/09/20 07:16:07;;;;;;;20.52;7.18;;;12.40;99.90;;;;;;5048774;28;20023;-54
2022/09/20 07:18:33;;;;;;;24.17;7.65;;;12.50;99.90;;;;;;5049459;28;20095;-55
2022/09/20 07:21:00;;;;;;;15.50;6.90;;;12.60;99.90;;;;;;5058161;28;20051;-55
2022/09/20 07:23:27;;;;;;;21.08;7.78;;;12.70;99.90;;;;;;5055927;28;20100;-53
2022/09/20 07:25:53;;;;;;;13.75;7.20;;;12.80;99.90;;;;;;5045973;28;20029;-52
2022/09/20 07:28:19;;;;;;;16.65;7.85;;;12.80;99.90;;;;;;5057782;28;20029;-54
2022/09/20 07:30:46;;;;;;;19.73;7.85;;;12.90;99.90;;;;;;5052762;28;20043;-52
2022/09/20 07:33:18;;;;;;;21.50;8.05;;;13.00;99.90;;;;;;5058064;28;20017;-54
2022/09/20 07:35:44;;;;;;;21.13;7.82;;;13.00;99.90;;;;;;5062069;28;20020;-57
2022/09/20 07:38:11;;;;;;;17.08;7.65;;;13.00;99.90;;;;;;5060088;28;20028;-56
2022/09/20 07:40:36;;;;;;;29.85;8.07;;;13.10;99.90;;;;;;5058691;28;20930;-57
2022/09/20 07:43:02;;;;;;;17.75;7.32;;;13.20;99.90;;;;;;5060752;28;20086;-56
2022/09/20 07:45:27;;;;;;;24.33;7.72;;;13.20;99.90;;;;;;5052118;28;20556;-56
2022/09/20 07:47:53;;;;;;;14.95;6.68;;;13.20;99.90;;;;;;5053004;28;20032;-56
2022/09/20 07:50:19;;;;;;;17.40;6.93;;;13.20;99.90;;;;;;5057129;28;20035;-58
2022/09/20 07:52:44;;;;;;;16.92;6.25;;;13.20;99.90;;;;;;5057222;28;20032;-57
2022/09/20 07:55:10;;;;;;;14.25;6.25;;;13.30;99.90;;;;;;5054117;28;20017;-57
2022/09/20 07:57:36;;;;;;;13.68;6.03;;;13.40;99.90;;;;;;5063601;28;20017;-57
2022/09/20 08:00:05;;;;;;;11.00;5.25;;;13.50;99.90;;;;;;5055014;28;20126;-58
2022/09/20 08:02:31;;;;;;;14.02;5.57;;;13.60;99.90;;;;;;5066256;28;20029;-58
2022/09/20 08:04:57;;;;;;;15.23;5.25;;;13.80;99.90;;;;;;5054983;28;20041;-58
2022/09/20 08:07:23;;;;;;;7.72;3.50;;;13.80;99.90;;;;;;5059272;28;20022;-57
2022/09/20 08:09:49;;;;;;;14.73;3.72;;;13.90;99.90;;;;;;5054405;28;20364;-53
2022/09/20 08:12:14;;;;;;;9.98;2.72;;;13.80;99.90;;;;;;5060414;28;20036;-57
2022/09/20 08:14:40;;;;;;;11.68;2.70;;;13.80;99.90;;;;;;5056355;28;20074;-57
2022/09/20 08:17:05;;;;;;;8.02;2.85;;;13.80;99.90;;;;;;5052080;28;20029;-57
2022/09/20 08:19:31;;;;;;;11.30;2.80;;;13.80;99.90;;;;;;5055874;28;20147;-58
2022/09/20 08:21:56;;;;;;;6.45;2.55;;;13.80;99.90;;;;;;5055331;28;20041;-56
2022/09/20 08:24:25;;;;;;;13.02;2.88;;;13.80;99.90;;;;;;5056536;28;20021;-56
2022/09/20 08:26:51;;;;;;;8.63;2.20;;;13.80;99.90;;;;;;5040442;28;20119;-57
2022/09/20 08:29:16;;;;;;;6.32;2.30;;;13.90;99.90;;;;;;5056837;28;20171;-56
2022/09/20 08:31:42;;;;;;;6.22;2.38;;;13.80;99.90;;;;;;5052692;28;20086;-56
2022/09/20 08:34:11;;;;;;;11.30;2.25;;;13.80;99.90;;;;;;5052173;28;20110;-57
2022/09/20 08:36:41;;;;;;;14.60;2.53;;;13.90;99.90;;;;;;5056595;28;20574;-56
2022/09/20 08:39:07;;;;;;;13.80;2.15;;;13.90;99.90;;;;;;5052191;28;20021;-58
2022/09/20 08:41:54;;;;;;;12.02;2.60;;;14.00;99.90;;;;;;5051754;28;20032;-58
2022/09/20 08:44:40;;;;;;;19.40;2.08;;;14.20;99.90;;;;;;5064144;28;20494;-58
2022/09/20 08:47:29;;;;;;;5.88;1.90;;;14.30;99.90;;;;;;5051336;28;20025;-58
2022/09/20 08:49:58;;;;;;;8.60;1.70;;;14.40;99.90;;;;;;5052483;28;20025;-54
2022/09/20 08:52:29;;;;;;;16.90;2.22;;;14.40;99.90;;;;;;5053357;28;20029;-54
2022/09/20 08:54:59;;;;;;;8.90;2.55;;;14.50;99.90;;;;;;5050023;28;20025;-58
2022/09/20 08:57:31;;;;;;;10.32;2.08;;;14.50;99.90;;;;;;5056146;28;20032;-58
2022/09/20 09:00:02;;;;;;;11.23;2.50;;;14.60;99.90;;;;;;5053008;28;20036;-57
2022/09/20 09:02:30;;;;;;;12.07;1.80;;;14.70;99.90;;;;;;5050925;28;20029;-58
2022/09/20 09:04:56;;;;;;;8.90;1.63;;;14.80;99.90;;;;;;5056790;28;20543;-57
2022/09/20 09:07:23;;;;;;;10.70;1.40;;;14.80;99.90;;;;;;5051666;28;20104;-56
2022/09/20 09:09:52;;;;;;;21.40;1.73;;;14.90;99.90;;;;;;5050281;28;20394;-57
2022/09/20 09:12:20;;;;;;;7.57;1.30;;;14.90;99.90;;;;;;5065253;28;20039;-58
2022/09/20 09:14:54;;;;;;;17.30;1.63;;;15.10;99.90;;;;;;5049477;28;20146;-57
2022/09/20 09:17:29;;;;;;;7.60;1.17;;;15.20;99.90;;;;;;5053024;28;20024;-58
2022/09/20 09:20:05;;;;;;;11.60;1.30;;;15.20;99.90;;;;;;5054331;28;20021;-57
2022/09/20 09:22:44;;;;;;;13.48;1.25;;;15.40;99.90;;;;;;5051457;28;20096;-58
2022/09/20 09:25:22;;;;;;;8.77;1.25;;;15.40;99.90;;;;;;5057634;28;20025;-57
2022/09/20 09:27:56;;;;;;;7.90;1.52;;;15.60;99.90;;;;;;5061646;28;20127;-57
2022/09/20 09:30:25;;;;;;;;;;;15.50;99.90;;;;;;5056960;28;20364;-57
2022/09/20 09:32:51;;;;;;;6.07;1.60;;;15.50;99.90;;;;;;5057614;28;19940;-55
2022/09/20 09:35:30;;;;;;;4.78;1.80;;;15.30;99.90;;;;;;5048890;28;20588;-57
2022/09/20 09:38:00;;;;;;;4.60;1.30;;;15.20;99.90;;;;;;5052010;28;20025;-55
2022/09/20 09:40:30;;;;;;;10.07;1.92;;;15.10;99.90;;;;;;5054467;28;20036;-57
2022/09/20 09:42:58;;;;;;;9.35;1.60;;;15.10;99.90;;;;;;5053292;28;20585;-57
2022/09/20 09:45:37;;;;;;;7.80;1.42;;;15.40;99.90;;;;;;5054631;28;20099;-58
2022/09/20 09:48:18;;;;;;;10.73;1.75;;;15.50;99.90;;;;;;5051072;28;20451;-57
2022/09/20 09:50:44;;;;;;;8.52;1.05;;;15.50;99.90;;;;;;5055999;28;20036;-56
2022/09/20 09:53:14;;;;;;;4.20;1.10;;;15.80;99.90;;;;;;5050610;28;20554;-57
2022/09/20 09:55:51;;;;;;;10.77;1.83;;;16.00;99.90;;;;;;5052883;28;20033;-57
2022/09/20 09:58:33;;;;;;;5.05;0.90;;;15.90;99.90;;;;;;5058020;28;20025;-58
2022/09/20 10:01:04;;;;;;;11.68;1.35;;;15.80;99.90;;;;;;5050993;28;20857;-57
2022/09/20 10:03:35;;;;;;;5.40;1.20;;;15.60;99.90;;;;;;5050122;28;20024;-56
2022/09/20 10:06:17;;;;;;;6.47;1.08;;;15.50;99.90;;;;;;5050972;28;20036;-57
2022/09/20 10:08:45;;;;;;;10.13;1.65;;;15.50;99.90;;;;;;5060232;28;20033;-57
2022/09/20 10:11:36;;;;;;;19.92;1.70;;;15.50;99.90;;;;;;5058001;28;20106;-58
2022/09/20 10:14:22;;;;;;;6.85;1.00;;;15.30;99.90;;;;;;5057707;28;20051;-56
2022/09/20 10:16:51;;;;;;;8.48;1.40;;;15.20;99.90;;;;;;5056194;28;20024;-56
2022/09/20 10:19:36;;;;;;;5.65;1.10;;;15.10;99.90;;;;;;5032034;28;20039;-57
2022/09/20 10:22:18;;;;;;;3.28;0.95;;;14.90;99.90;;;;;;5057152;28;20025;-57
2022/09/20 10:24:50;;;;;;;7.22;0.90;;;14.90;99.90;;;;;;5053104;28;20045;-57
2022/09/20 10:27:31;;;;;;;3.22;0.95;;;14.90;99.90;;;;;;5054240;28;20118;-57
2022/09/20 10:30:15;;;;;;;5.72;1.45;;;14.90;99.90;;;;;;5054295;28;20045;-58
2022/09/20 10:32:59;;;;;;;10.57;1.23;;;15.00;99.90;;;;;;5052741;28;20044;-58
2022/09/20 10:35:31;;;;;;;8.27;0.90;;;15.10;99.90;;;;;;5055665;28;20025;-56
2022/09/20 10:38:24;;;;;;;11.18;1.10;;;15.10;99.90;;;;;;5062499;28;20491;-56
2022/09/20 10:44:05;;;;;;;10.48;1.35;;;15.40;99.90;;;;;;5057549;28;20028;-58
2022/09/20 10:46:42;;;;;;;16.77;1.27;;;15.70;99.90;;;;;;5056379;28;20437;-57
2022/09/20 10:49:35;;;;;;;5.20;1.40;;;15.80;99.90;;;;;;5056287;28;20041;-59
2022/09/20 10:52:19;;;;;;;5.75;1.15;;;15.90;99.90;;;;;;5060689;28;20494;-58
2022/09/20 10:55:09;;;;;;;4.72;0.98;;;16.10;99.90;;;;;;5051588;28;20075;-57
2022/09/20 10:57:50;;;;;;;11.35;1.42;;;16.10;99.90;;;;;;5062717;28;20043;-58
2022/09/20 11:00:21;;;;;;;10.23;1.13;;;16.20;99.90;;;;;;5055860;28;20063;-58
2022/09/20 11:03:01;;;;;;;9.55;0.95;;;16.00;99.90;;;;;;5049724;28;20048;-59
2022/09/20 11:05:56;;;;;;;9.38;1.10;;;16.20;99.90;;;;;;5054667;28;20035;-59
2022/09/20 11:08:27;;;;;;;4.97;1.08;;;16.20;99.90;;;;;;5048541;28;20560;-56
2022/09/20 11:10:56;;;;;;;8.25;0.80;;;16.10;99.90;;;;;;5049171;28;20380;-58
2022/09/20 11:13:47;;;;;;;2.67;0.77;;;15.80;99.90;;;;;;5059802;28;20099;-58
2022/09/20 11:16:22;;;;;;;8.82;0.98;;;15.70;99.90;;;;;;5047812;28;20100;-57
2022/09/20 11:19:13;;;;;;;9.65;1.23;;;15.50;99.90;;;;;;5052957;28;20177;-58
2022/09/20 11:21:56;;;;;;;6.68;0.93;;;15.50;99.90;;;;;;5032086;28;20043;-55
2022/09/20 11:24:36;;;;;;;14.80;2.30;;;15.40;99.90;;;;;;5053125;28;20037;-55
2022/09/20 11:27:12;;;;;;;6.45;0.77;;;15.40;99.90;;;;;;5056147;28;20029;-58
2022/09/20 11:29:49;;;;;;;5.90;1.08;;;15.40;99.90;;;;;;5053512;28;20028;-58
2022/09/20 11:32:23;;;;;;;9.73;1.15;;;15.40;99.90;;;;;;5060856;28;20441;-54
2022/09/20 11:35:00;;;;;;;3.92;1.00;;;15.30;99.90;;;;;;5059085;28;20031;-57
2022/09/20 11:37:32;;;;;;;2.92;0.80;;;15.20;99.90;;;;;;5049666;28;20025;-56
2022/09/20 11:40:03;;;;;;;7.25;0.70;;;15.10;99.90;;;;;;5049121;28;20127;-57
2022/09/20 11:42:34;;;;;;;14.30;1.15;;;15.00;99.90;;;;;;5053805;28;20053;-58
2022/09/20 11:44:59;;;;;;;5.32;0.90;;;15.00;99.90;;;;;;5050026;28;20032;-59
2022/09/20 11:47:32;;;;;;;5.03;1.02;;;14.70;99.90;;;;;;5062492;28;20036;-58
2022/09/20 11:50:16;;;;;;;4.47;1.02;;;14.60;99.90;;;;;;5055556;28;20071;-59
2022/09/20 11:52:51;;;;;;;12.45;1.23;;;14.60;99.90;;;;;;5053524;28;20025;-58
2022/09/20 11:55:40;;;;;;;4.10;0.90;;;14.60;99.90;;;;;;5052340;28;20021;-58
2022/09/20 11:58:10;;;;;;;7.88;1.05;;;14.50;99.90;;;;;;5048951;28;20461;-58
2022/09/20 12:00:40;;;;;;;4.13;0.77;;;14.60;99.90;;;;;;5055907;28;20042;-59
2022/09/20 12:03:20;;;;;;;11.60;1.50;;;14.60;99.90;;;;;;5051591;28;20121;-58
2022/09/20 12:05:55;;;;;;;4.43;1.15;;;14.70;99.90;;;;;;5060605;28;20077;-57
2022/09/20 12:08:23;;;;;;;;;;;14.80;99.90;;;;;;5058135;28;20028;-58
2022/09/20 12:11:03;;;;;;;4.57;0.82;;;14.90;99.90;;;;;;5058685;28;19917;-58
2022/09/20 12:13:30;;;;;;;4.35;0.82;;;15.10;99.90;;;;;;5058526;28;20628;-58
2022/09/20 12:16:03;;;;;;;5.38;0.73;;;15.20;99.90;;;;;;5058707;28;20789;-58
2022/09/20 12:18:35;;;;;;;3.75;0.60;;;15.10;99.90;;;;;;5037501;28;20111;-56
2022/09/20 12:21:00;;;;;;;5.47;0.77;;;15.10;99.90;;;;;;5054453;28;20037;-58
2022/09/20 12:23:41;;;;;;;3.67;0.63;;;15.00;99.90;;;;;;5056316;28;20037;-59
2022/09/20 12:26:19;;;;;;;3.10;0.88;;;14.90;99.90;;;;;;5055354;28;20036;-57
2022/09/20 12:28:50;;;;;;;3.42;0.63;;;14.90;99.90;;;;;;5063032;28;20066;-59
2022/09/20 12:31:36;;;;;;;6.25;0.77;;;14.80;99.90;;;;;;5054799;28;20032;-58
2022/09/20 12:34:11;;;;;;;1.98;0.60;;;14.80;99.90;;;;;;5051236;28;20025;-57
2022/09/20 12:36:41;;;;;;;2.88;0.55;;;14.80;99.90;;;;;;5057923;28;20028;-58
2022/09/20 12:39:12;;;;;;;0.95;0.50;;;14.90;99.90;;;;;;5063372;28;20264;-56
2022/09/20 12:42:08;;;;;;;2.30;0.43;;;15.00;99.90;;;;;;5053209;28;20039;-58
2022/09/20 12:44:48;;;;;;;5.10;0.70;;;15.20;99.90;;;;;;5060905;28;20543;-58
2022/09/20 12:47:23;;;;;;;6.30;0.50;;;15.60;99.90;;;;;;5058517;28;20033;-57
2022/09/20 12:52:56;;;;;;;6.13;0.70;;;16.90;99.90;;;;;;5054915;28;20477;-56
2022/09/20 12:55:49;;;;;;;3.60;0.60;;;17.30;99.90;;;;;;5053279;28;20033;-58
2022/09/20 12:58:14;;;;;;;2.33;0.60;;;17.30;99.90;;;;;;5051981;28;20028;-58
2022/09/20 13:00:47;;;;;;;3.13;0.50;;;17.10;99.90;;;;;;5053451;28;20036;-57
2022/09/20 13:03:26;;;;;;;11.68;1.52;;;17.00;99.90;;;;;;5052747;28;20021;-57
2022/09/20 13:06:04;;;;;;;4.88;1.42;;;17.00;99.90;;;;;;5053186;28;20032;-59
2022/09/20 13:08:31;;;;;;;1.70;0.50;;;17.10;99.90;;;;;;5058927;28;20055;-58
2022/09/20 13:11:06;;;;;;;3.38;0.43;;;17.30;99.90;;;;;;5057861;28;20037;-58
2022/09/20 13:13:54;;;;;;;1.77;0.50;;;17.10;99.90;;;;;;5051025;28;20029;-58
2022/09/20 13:16:46;;;;;;;5.00;0.70;;;16.90;99.90;;;;;;5051885;28;20549;-57
2022/09/20 13:19:17;;;;;;;1.67;0.52;;;16.70;99.90;;;;;;5058095;28;20033;-58
2022/09/20 13:21:56;;;;;;;6.85;0.80;;;16.50;99.90;;;;;;5057999;28;20040;-57
2022/09/20 13:24:24;;;;;;;6.07;0.85;;;16.30;99.90;;;;;;5049430;28;20033;-58
2022/09/20 13:26:52;;;;;;;8.23;0.70;;;16.10;99.90;;;;;;5050233;28;21150;-58
2022/09/20 13:29:28;;;;;;;8.40;0.85;;;16.00;99.90;;;;;;5058522;28;20029;-58
2022/09/20 13:31:55;;;;;;;5.00;1.55;;;16.00;99.90;;;;;;5063308;28;20039;-58
2022/09/20 13:34:23;;;;;;;6.65;1.08;;;15.80;99.90;;;;;;5053374;28;20349;-58
2022/09/20 13:36:53;;;;;;;6.53;1.00;;;15.80;99.90;;;;;;5062734;28;20141;-59
2022/09/20 13:39:36;;;;;;;6.57;1.08;;;15.70;99.90;;;;;;5053254;28;20048;-59
2022/09/20 13:42:10;;;;;;;5.35;0.98;;;15.80;99.90;;;;;;5057985;28;20113;-58
2022/09/20 13:44:36;;;;;;;6.03;1.40;;;15.80;99.90;;;;;;5059903;28;20558;-57
2022/09/20 13:47:19;;;;;;;10.07;1.30;;;15.70;99.90;;;;;;5053157;28;20033;-58
2022/09/20 13:49:45;;;;;;;4.05;0.98;;;15.60;99.90;;;;;;5063131;28;20028;-59
2022/09/20 13:52:21;;;;;;;6.03;2.03;;;15.70;99.90;;;;;;5054234;28;20051;-59